sensor_id;sensor_type;location;lat;lon;timestamp;temperature;humidity
41694;DHT22;27377;50.666;9.150;2022-07-09T00:00:32;14.20;99.90
41694;DHT22;27377;50.666;9.150;2022-07-09T00:03:16;14.10;99.90
41694;DHT22;27377;50.666;9.150;2022-07-09T00:06:01;14.10;99.90
41694;DHT22;27377;50.666;9.150;2022-07-09T00:08:47;14.10;99.90
41694;DHT22;27377;50.666;9.150;2022-07-09T00:11:31;14.00;99.90
41694;DHT22;27377;50.666;9.150;2022-07-09T00:14:15;14.00;99.90
41694;DHT22;27377;50.666;9.150;2022-07-09T00:16:59;14.10;99.90
41694;DHT22;27377;50.666;9.150;2022-07-09T00:19:43;14.00;99.90
41694;DHT22;27377;50.666;9.150;2022-07-09T00:22:27;14.00;99.90
41694;DHT22;27377;50.666;9.150;2022-07-09T00:25:11;14.00;99.90
41694;DHT22;27377;50.666;9.150;2022-07-09T00:27:55;14.00;99.90
41694;DHT22;27377;50.666;9.150;2022-07-09T00:30:39;14.00;99.90
41694;DHT22;27377;50.666;9.150;2022-07-09T00:33:23;14.00;99.90
41694;DHT22;27377;50.666;9.150;2022-07-09T00:36:07;14.00;99.90
41694;DHT22;27377;50.666;9.150;2022-07-09T00:38:51;14.00;99.90
41694;DHT22;27377;50.666;9.150;2022-07-09T00:41:35;13.90;99.90
41694;DHT22;27377;50.666;9.150;2022-07-09T00:44:19;13.90;99.90
41694;DHT22;27377;50.666;9.150;2022-07-09T00:47:05;13.90;99.90
41694;DHT22;27377;50.666;9.150;2022-07-09T00:49:50;14.00;99.90
41694;DHT22;27377;50.666;9.150;2022-07-09T00:52:35;13.90;99.90
41694;DHT22;27377;50.666;9.150;2022-07-09T00:55:20;13.90;99.90
41694;DHT22;27377;50.666;9.150;2022-07-09T00:58:04;13.90;99.90
41694;DHT22;27377;50.666;9.150;2022-07-09T01:00:48;13.90;99.90
41694;DHT22;27377;50.666;9.150;2022-07-09T01:03:33;13.90;99.90
41694;DHT22;27377;50.666;9.150;2022-07-09T01:06:17;13.90;99.90
41694;DHT22;27377;50.666;9.150;2022-07-09T01:09:02;13.90;99.90
41694;DHT22;27377;50.666;9.150;2022-07-09T01:11:47;13.90;99.90
41694;DHT22;27377;50.666;9.150;2022-07-09T01:14:32;13.90;99.90
41694;DHT22;27377;50.666;9.150;2022-07-09T01:17:16;13.90;99.90
41694;DHT22;27377;50.666;9.150;2022-07-09T01:20:00;13.90;99.90
41694;DHT22;27377;50.666;9.150;2022-07-09T01:22:44;14.00;99.90
41694;DHT22;27377;50.666;9.150;2022-07-09T01:25:38;14.00;99.90
41694;DHT22;27377;50.666;9.150;2022-07-09T01:28:22;14.00;99.90
41694;DHT22;27377;50.666;9.150;2022-07-09T01:31:06;14.00;99.90
41694;DHT22;27377;50.666;9.150;2022-07-09T01:33:51;13.90;99.90
41694;DHT22;27377;50.666;9.150;2022-07-09T01:36:35;13.90;99.90
41694;DHT22;27377;50.666;9.150;2022-07-09T01:39:19;13.80;99.90
41694;DHT22;27377;50.666;9.150;2022-07-09T01:42:03;13.90;99.90
41694;DHT22;27377;50.666;9.150;2022-07-09T01:44:47;13.80;99.90
41694;DHT22;27377;50.666;9.150;2022-07-09T01:47:35;13.80;99.90
41694;DHT22;27377;50.666;9.150;2022-07-09T01:50:19;13.70;99.90
41694;DHT22;27377;50.666;9.150;2022-07-09T01:53:03;13.70;99.90
41694;DHT22;27377;50.666;9.150;2022-07-09T01:55:48;13.70;99.90
41694;DHT22;27377;50.666;9.150;2022-07-09T01:58:32;13.70;99.90
41694;DHT22;27377;50.666;9.150;2022-07-09T02:01:16;13.60;99.90
41694;DHT22;27377;50.666;9.150;2022-07-09T02:04:01;13.60;99.90
41694;DHT22;27377;50.666;9.150;2022-07-09T02:10:08;13.50;99.90
41694;DHT22;27377;50.666;9.150;2022-07-09T02:12:52;13.50;99.90
41694;DHT22;27377;50.666;9.150;2022-07-09T02:15:36;13.40;99.90
41694;DHT22;27377;50.666;9.150;2022-07-09T02:18:20;13.40;99.90
41694;DHT22;27377;50.666;9.150;2022-07-09T02:21:04;13.30;99.90
41694;DHT22;27377;50.666;9.150;2022-07-09T02:23:49;13.30;99.90
41694;DHT22;27377;50.666;9.150;2022-07-09T02:26:33;13.20;99.90
41694;DHT22;27377;50.666;9.150;2022-07-09T02:29:17;13.20;99.90
41694;DHT22;27377;50.666;9.150;2022-07-09T02:32:01;13.20;99.90
41694;DHT22;27377;50.666;9.150;2022-07-09T02:34:45;13.10;99.90
41694;DHT22;27377;50.666;9.150;2022-07-09T02:37:29;13.10;99.90
41694;DHT22;27377;50.666;9.150;2022-07-09T02:40:13;13.10;99.90
41694;DHT22;27377;50.666;9.150;2022-07-09T02:42:58;13.00;99.90
41694;DHT22;27377;50.666;9.150;2022-07-09T02:45:42;13.00;99.90
41694;DHT22;27377;50.666;9.150;2022-07-09T02:48:26;12.90;99.90
41694;DHT22;27377;50.666;9.150;2022-07-09T02:51:10;12.90;99.90
41694;DHT22;27377;50.666;9.150;2022-07-09T02:53:54;12.90;99.90
41694;DHT22;27377;50.666;9.150;2022-07-09T02:56:38;12.80;99.90
41694;DHT22;27377;50.666;9.150;2022-07-09T02:59:22;12.80;99.90
41694;DHT22;27377;50.666;9.150;2022-07-09T03:02:06;12.80;99.90
41694;DHT22;27377;50.666;9.150;2022-07-09T03:04:50;12.80;99.90
41694;DHT22;27377;50.666;9.150;2022-07-09T03:07:35;12.70;99.90
41694;DHT22;27377;50.666;9.150;2022-07-09T03:10:19;12.70;99.90
41694;DHT22;27377;50.666;9.150;2022-07-09T03:13:03;12.70;99.90
41694;DHT22;27377;50.666;9.150;2022-07-09T03:15:47;12.60;99.90
41694;DHT22;27377;50.666;9.150;2022-07-09T03:18:32;12.60;99.90
41694;DHT22;27377;50.666;9.150;2022-07-09T03:21:17;12.60;99.90
41694;DHT22;27377;50.666;9.150;2022-07-09T03:24:00;12.60;99.90
41694;DHT22;27377;50.666;9.150;2022-07-09T03:26:44;12.60;99.90
41694;DHT22;27377;50.666;9.150;2022-07-09T03:29:29;12.60;99.90
41694;DHT22;27377;50.666;9.150;2022-07-09T03:32:13;12.60;99.90
41694;DHT22;27377;50.666;9.150;2022-07-09T03:34:57;12.60;99.90
41694;DHT22;27377;50.666;9.150;2022-07-09T03:37:41;12.50;99.90
41694;DHT22;27377;50.666;9.150;2022-07-09T03:40:26;12.50;99.90
41694;DHT22;27377;50.666;9.150;2022-07-09T03:43:10;12.50;99.90
41694;DHT22;27377;50.666;9.150;2022-07-09T03:45:54;12.40;99.90
41694;DHT22;27377;50.666;9.150;2022-07-09T03:48:38;12.40;99.90
41694;DHT22;27377;50.666;9.150;2022-07-09T03:51:22;12.30;99.90
41694;DHT22;27377;50.666;9.150;2022-07-09T03:54:06;12.30;99.90
41694;DHT22;27377;50.666;9.150;2022-07-09T03:56:51;12.30;99.90
41694;DHT22;27377;50.666;9.150;2022-07-09T03:59:35;12.40;99.90
41694;DHT22;27377;50.666;9.150;2022-07-09T04:02:20;12.40;99.90
41694;DHT22;27377;50.666;9.150;2022-07-09T04:05:04;12.40;99.90
41694;DHT22;27377;50.666;9.150;2022-07-09T04:07:48;12.40;99.90
41694;DHT22;27377;50.666;9.150;2022-07-09T04:10:32;12.30;99.90
41694;DHT22;27377;50.666;9.150;2022-07-09T04:13:16;12.40;99.90
41694;DHT22;27377;50.666;9.150;2022-07-09T04:16:00;12.40;99.90
41694;DHT22;27377;50.666;9.150;2022-07-09T04:18:44;12.40;99.90
41694;DHT22;27377;50.666;9.150;2022-07-09T04:21:28;12.40;99.90
41694;DHT22;27377;50.666;9.150;2022-07-09T04:24:12;12.50;99.90
41694;DHT22;27377;50.666;9.150;2022-07-09T04:26:59;12.50;99.90
41694;DHT22;27377;50.666;9.150;2022-07-09T04:29:43;12.40;99.90
41694;DHT22;27377;50.666;9.150;2022-07-09T04:32:28;12.50;99.90
41694;DHT22;27377;50.666;9.150;2022-07-09T04:35:12;12.50;99.90
41694;DHT22;27377;50.666;9.150;2022-07-09T04:37:56;12.50;99.90
41694;DHT22;27377;50.666;9.150;2022-07-09T04:40:40;12.60;99.90
41694;DHT22;27377;50.666;9.150;2022-07-09T04:43:25;12.60;99.90
41694;DHT22;27377;50.666;9.150;2022-07-09T04:46:09;12.70;99.90
41694;DHT22;27377;50.666;9.150;2022-07-09T04:48:54;12.80;99.90
41694;DHT22;27377;50.666;9.150;2022-07-09T04:51:38;12.90;99.90
41694;DHT22;27377;50.666;9.150;2022-07-09T04:54:22;12.90;99.90
41694;DHT22;27377;50.666;9.150;2022-07-09T04:57:06;13.00;99.90
41694;DHT22;27377;50.666;9.150;2022-07-09T04:59:51;13.00;99.90
41694;DHT22;27377;50.666;9.150;2022-07-09T05:02:35;13.00;99.90
41694;DHT22;27377;50.666;9.150;2022-07-09T05:05:19;13.00;99.90
41694;DHT22;27377;50.666;9.150;2022-07-09T05:08:07;13.10;99.90
41694;DHT22;27377;50.666;9.150;2022-07-09T05:10:51;13.20;99.90
41694;DHT22;27377;50.666;9.150;2022-07-09T05:13:35;13.30;99.90
41694;DHT22;27377;50.666;9.150;2022-07-09T05:16:19;13.40;99.90
41694;DHT22;27377;50.666;9.150;2022-07-09T05:19:03;13.50;99.90
41694;DHT22;27377;50.666;9.150;2022-07-09T05:21:47;13.60;99.90
41694;DHT22;27377;50.666;9.150;2022-07-09T05:24:31;13.70;99.90
41694;DHT22;27377;50.666;9.150;2022-07-09T05:27:15;13.80;99.90
41694;DHT22;27377;50.666;9.150;2022-07-09T05:30:00;13.90;99.90
41694;DHT22;27377;50.666;9.150;2022-07-09T05:32:44;13.90;99.90
41694;DHT22;27377;50.666;9.150;2022-07-09T05:35:28;14.10;99.90
41694;DHT22;27377;50.666;9.150;2022-07-09T05:38:12;14.10;99.90
41694;DHT22;27377;50.666;9.150;2022-07-09T05:40:56;14.30;99.90
41694;DHT22;27377;50.666;9.150;2022-07-09T05:43:42;14.30;99.90
41694;DHT22;27377;50.666;9.150;2022-07-09T05:46:26;14.40;99.90
41694;DHT22;27377;50.666;9.150;2022-07-09T05:49:10;14.50;99.90
41694;DHT22;27377;50.666;9.150;2022-07-09T05:51:54;14.60;99.90
41694;DHT22;27377;50.666;9.150;2022-07-09T05:54:38;14.70;99.90
41694;DHT22;27377;50.666;9.150;2022-07-09T05:57:22;14.70;99.90
41694;DHT22;27377;50.666;9.150;2022-07-09T06:00:06;14.80;99.90
41694;DHT22;27377;50.666;9.150;2022-07-09T06:02:51;14.90;99.90
41694;DHT22;27377;50.666;9.150;2022-07-09T06:05:35;15.00;99.90
41694;DHT22;27377;50.666;9.150;2022-07-09T06:08:19;15.10;99.90
41694;DHT22;27377;50.666;9.150;2022-07-09T06:11:03;15.20;99.90
41694;DHT22;27377;50.666;9.150;2022-07-09T06:13:47;15.30;99.90
41694;DHT22;27377;50.666;9.150;2022-07-09T06:16:31;15.40;99.90
41694;DHT22;27377;50.666;9.150;2022-07-09T06:19:15;15.50;99.90
41694;DHT22;27377;50.666;9.150;2022-07-09T06:22:01;15.60;99.90
41694;DHT22;27377;50.666;9.150;2022-07-09T06:24:45;15.60;99.90
41694;DHT22;27377;50.666;9.150;2022-07-09T06:27:29;15.70;99.90
41694;DHT22;27377;50.666;9.150;2022-07-09T06:30:14;15.80;99.90
41694;DHT22;27377;50.666;9.150;2022-07-09T06:32:58;15.80;99.90
41694;DHT22;27377;50.666;9.150;2022-07-09T06:35:42;15.90;99.90
41694;DHT22;27377;50.666;9.150;2022-07-09T06:38:29;15.90;99.90
41694;DHT22;27377;50.666;9.150;2022-07-09T06:41:13;15.90;99.90
41694;DHT22;27377;50.666;9.150;2022-07-09T06:43:57;16.00;99.90
41694;DHT22;27377;50.666;9.150;2022-07-09T06:46:41;16.00;99.90
41694;DHT22;27377;50.666;9.150;2022-07-09T06:49:25;16.10;99.90
41694;DHT22;27377;50.666;9.150;2022-07-09T06:52:10;16.10;99.90
41694;DHT22;27377;50.666;9.150;2022-07-09T06:54:54;16.10;99.90
41694;DHT22;27377;50.666;9.150;2022-07-09T06:57:38;16.10;99.90
41694;DHT22;27377;50.666;9.150;2022-07-09T07:00:22;16.20;99.90
41694;DHT22;27377;50.666;9.150;2022-07-09T07:03:07;16.20;99.90
41694;DHT22;27377;50.666;9.150;2022-07-09T07:05:51;16.20;99.90
41694;DHT22;27377;50.666;9.150;2022-07-09T07:08:35;16.30;99.90
41694;DHT22;27377;50.666;9.150;2022-07-09T07:11:20;16.30;99.90
41694;DHT22;27377;50.666;9.150;2022-07-09T07:14:04;16.30;99.90
41694;DHT22;27377;50.666;9.150;2022-07-09T07:16:48;16.30;99.90
41694;DHT22;27377;50.666;9.150;2022-07-09T07:19:32;16.40;99.90
41694;DHT22;27377;50.666;9.150;2022-07-09T07:22:16;16.40;99.90
41694;DHT22;27377;50.666;9.150;2022-07-09T07:25:00;16.40;99.90
41694;DHT22;27377;50.666;9.150;2022-07-09T07:27:44;16.50;99.90
41694;DHT22;27377;50.666;9.150;2022-07-09T07:30:28;16.50;99.90
41694;DHT22;27377;50.666;9.150;2022-07-09T07:33:16;16.50;99.90
41694;DHT22;27377;50.666;9.150;2022-07-09T07:36:00;16.50;99.90
41694;DHT22;27377;50.666;9.150;2022-07-09T07:38:44;16.60;99.90
41694;DHT22;27377;50.666;9.150;2022-07-09T07:41:29;16.60;99.90
41694;DHT22;27377;50.666;9.150;2022-07-09T07:44:14;16.60;99.90
41694;DHT22;27377;50.666;9.150;2022-07-09T07:46:58;16.60;99.90
41694;DHT22;27377;50.666;9.150;2022-07-09T07:49:42;16.70;99.90
41694;DHT22;27377;50.666;9.150;2022-07-09T07:52:26;16.80;99.90
41694;DHT22;27377;50.666;9.150;2022-07-09T07:55:10;16.80;99.90
41694;DHT22;27377;50.666;9.150;2022-07-09T07:57:54;16.90;99.90
41694;DHT22;27377;50.666;9.150;2022-07-09T08:00:38;17.00;99.90
41694;DHT22;27377;50.666;9.150;2022-07-09T08:03:23;17.00;99.90
41694;DHT22;27377;50.666;9.150;2022-07-09T08:06:07;17.00;99.90
41694;DHT22;27377;50.666;9.150;2022-07-09T08:08:51;17.10;99.90
41694;DHT22;27377;50.666;9.150;2022-07-09T08:11:35;17.20;99.90
41694;DHT22;27377;50.666;9.150;2022-07-09T08:14:19;17.20;99.90
41694;DHT22;27377;50.666;9.150;2022-07-09T08:17:04;17.30;99.90
41694;DHT22;27377;50.666;9.150;2022-07-09T08:19:48;17.30;99.90
41694;DHT22;27377;50.666;9.150;2022-07-09T08:22:32;17.30;99.90
41694;DHT22;27377;50.666;9.150;2022-07-09T08:25:16;17.40;99.90
41694;DHT22;27377;50.666;9.150;2022-07-09T08:28:01;17.40;99.90
41694;DHT22;27377;50.666;9.150;2022-07-09T08:30:45;17.50;99.90
41694;DHT22;27377;50.666;9.150;2022-07-09T08:33:29;17.60;99.90
41694;DHT22;27377;50.666;9.150;2022-07-09T08:36:13;17.60;99.90
41694;DHT22;27377;50.666;9.150;2022-07-09T08:38:57;17.60;99.90
41694;DHT22;27377;50.666;9.150;2022-07-09T08:41:43;17.60;99.90
41694;DHT22;27377;50.666;9.150;2022-07-09T08:44:29;17.60;99.90
41694;DHT22;27377;50.666;9.150;2022-07-09T08:47:15;17.60;99.90
41694;DHT22;27377;50.666;9.150;2022-07-09T08:49:59;17.60;99.90
41694;DHT22;27377;50.666;9.150;2022-07-09T08:52:45;17.60;99.90
41694;DHT22;27377;50.666;9.150;2022-07-09T08:55:30;17.60;99.90
41694;DHT22;27377;50.666;9.150;2022-07-09T08:58:14;17.60;99.90
41694;DHT22;27377;50.666;9.150;2022-07-09T09:00:59;17.70;99.90
41694;DHT22;27377;50.666;9.150;2022-07-09T09:03:44;17.70;99.90
41694;DHT22;27377;50.666;9.150;2022-07-09T09:06:29;17.80;99.90
41694;DHT22;27377;50.666;9.150;2022-07-09T09:09:18;17.90;99.90
41694;DHT22;27377;50.666;9.150;2022-07-09T09:12:03;17.90;99.90
41694;DHT22;27377;50.666;9.150;2022-07-09T09:14:48;17.80;99.90
41694;DHT22;27377;50.666;9.150;2022-07-09T09:17:34;17.90;99.90
41694;DHT22;27377;50.666;9.150;2022-07-09T09:20:19;17.90;99.90
41694;DHT22;27377;50.666;9.150;2022-07-09T09:23:03;17.90;99.90
41694;DHT22;27377;50.666;9.150;2022-07-09T09:25:48;17.90;99.90
41694;DHT22;27377;50.666;9.150;2022-07-09T09:28:32;17.90;99.90
41694;DHT22;27377;50.666;9.150;2022-07-09T09:31:29;17.90;99.90
41694;DHT22;27377;50.666;9.150;2022-07-09T09:34:15;17.90;99.90
41694;DHT22;27377;50.666;9.150;2022-07-09T09:36:59;17.90;99.90
41694;DHT22;27377;50.666;9.150;2022-07-09T09:39:50;18.00;99.90
41694;DHT22;27377;50.666;9.150;2022-07-09T09:42:41;18.00;99.90
41694;DHT22;27377;50.666;9.150;2022-07-09T09:45:28;18.00;99.90
41694;DHT22;27377;50.666;9.150;2022-07-09T09:48:13;18.10;99.90
41694;DHT22;27377;50.666;9.150;2022-07-09T09:51:00;18.20;99.90
41694;DHT22;27377;50.666;9.150;2022-07-09T09:53:45;18.20;99.90
41694;DHT22;27377;50.666;9.150;2022-07-09T09:56:31;18.20;99.90
41694;DHT22;27377;50.666;9.150;2022-07-09T09:59:17;18.20;99.90
41694;DHT22;27377;50.666;9.150;2022-07-09T10:02:01;18.30;99.90
41694;DHT22;27377;50.666;9.150;2022-07-09T10:04:46;18.40;99.90
41694;DHT22;27377;50.666;9.150;2022-07-09T10:07:30;18.40;99.90
41694;DHT22;27377;50.666;9.150;2022-07-09T10:10:18;18.50;99.90
41694;DHT22;27377;50.666;9.150;2022-07-09T10:13:03;18.60;99.90
41694;DHT22;27377;50.666;9.150;2022-07-09T10:15:50;18.60;99.90
41694;DHT22;27377;50.666;9.150;2022-07-09T10:18:35;18.60;99.90
41694;DHT22;27377;50.666;9.150;2022-07-09T10:21:34;18.60;99.90
41694;DHT22;27377;50.666;9.150;2022-07-09T10:24:31;18.70;99.90
41694;DHT22;27377;50.666;9.150;2022-07-09T10:27:15;18.80;99.90
41694;DHT22;27377;50.666;9.150;2022-07-09T10:30:00;18.80;99.90
41694;DHT22;27377;50.666;9.150;2022-07-09T10:33:00;18.90;99.90
41694;DHT22;27377;50.666;9.150;2022-07-09T10:35:47;18.90;99.90
41694;DHT22;27377;50.666;9.150;2022-07-09T10:38:36;18.90;99.90
41694;DHT22;27377;50.666;9.150;2022-07-09T10:41:23;18.90;99.90
41694;DHT22;27377;50.666;9.150;2022-07-09T10:44:07;19.00;99.90
41694;DHT22;27377;50.666;9.150;2022-07-09T10:46:57;19.00;99.90
41694;DHT22;27377;50.666;9.150;2022-07-09T10:49:42;19.00;99.90
41694;DHT22;27377;50.666;9.150;2022-07-09T10:52:30;19.00;99.90
41694;DHT22;27377;50.666;9.150;2022-07-09T10:55:27;19.00;99.90
41694;DHT22;27377;50.666;9.150;2022-07-09T10:58:19;19.00;99.90
41694;DHT22;27377;50.666;9.150;2022-07-09T11:01:03;19.10;99.90
41694;DHT22;27377;50.666;9.150;2022-07-09T11:03:49;19.10;99.90
41694;DHT22;27377;50.666;9.150;2022-07-09T11:06:44;19.10;99.40
41694;DHT22;27377;50.666;9.150;2022-07-09T11:09:29;19.20;99.00
41694;DHT22;27377;50.666;9.150;2022-07-09T11:12:18;19.20;99.50
41694;DHT22;27377;50.666;9.150;2022-07-09T11:15:02;19.20;99.60
41694;DHT22;27377;50.666;9.150;2022-07-09T11:17:55;19.20;99.60
41694;DHT22;27377;50.666;9.150;2022-07-09T11:20:43;19.30;99.50
41694;DHT22;27377;50.666;9.150;2022-07-09T11:23:28;19.30;99.50
41694;DHT22;27377;50.666;9.150;2022-07-09T11:26:14;19.40;98.90
41694;DHT22;27377;50.666;9.150;2022-07-09T11:28:58;19.40;98.90
41694;DHT22;27377;50.666;9.150;2022-07-09T11:31:50;19.40;98.90
41694;DHT22;27377;50.666;9.150;2022-07-09T11:34:35;19.40;98.80
41694;DHT22;27377;50.666;9.150;2022-07-09T11:37:23;19.40;98.80
41694;DHT22;27377;50.666;9.150;2022-07-09T11:40:08;19.50;98.70
41694;DHT22;27377;50.666;9.150;2022-07-09T11:42:59;19.50;98.70
41694;DHT22;27377;50.666;9.150;2022-07-09T11:45:53;19.50;98.10
41694;DHT22;27377;50.666;9.150;2022-07-09T11:48:56;19.50;97.70
41694;DHT22;27377;50.666;9.150;2022-07-09T11:51:41;19.50;97.90
41694;DHT22;27377;50.666;9.150;2022-07-09T11:54:26;19.50;97.50
41694;DHT22;27377;50.666;9.150;2022-07-09T11:57:20;19.60;97.20
41694;DHT22;27377;50.666;9.150;2022-07-09T12:00:22;19.60;96.30
41694;DHT22;27377;50.666;9.150;2022-07-09T12:03:07;19.70;96.70
41694;DHT22;27377;50.666;9.150;2022-07-09T12:05:51;19.60;97.10
41694;DHT22;27377;50.666;9.150;2022-07-09T12:08:35;19.50;97.10
41694;DHT22;27377;50.666;9.150;2022-07-09T12:11:26;19.60;95.90
41694;DHT22;27377;50.666;9.150;2022-07-09T12:14:10;19.60;96.30
41694;DHT22;27377;50.666;9.150;2022-07-09T12:16:57;19.60;96.60
41694;DHT22;27377;50.666;9.150;2022-07-09T12:19:42;19.60;96.00
41694;DHT22;27377;50.666;9.150;2022-07-09T12:22:26;19.60;96.50
41694;DHT22;27377;50.666;9.150;2022-07-09T12:25:11;19.50;96.60
41694;DHT22;27377;50.666;9.150;2022-07-09T12:27:55;19.60;96.20
41694;DHT22;27377;50.666;9.150;2022-07-09T12:30:40;19.50;96.70
41694;DHT22;27377;50.666;9.150;2022-07-09T12:33:25;19.50;96.80
41694;DHT22;27377;50.666;9.150;2022-07-09T12:36:09;19.50;96.90
41694;DHT22;27377;50.666;9.150;2022-07-09T12:38:53;19.50;96.80
41694;DHT22;27377;50.666;9.150;2022-07-09T12:41:37;19.40;96.70
41694;DHT22;27377;50.666;9.150;2022-07-09T12:44:22;19.40;96.70
41694;DHT22;27377;50.666;9.150;2022-07-09T12:47:06;19.40;96.80
41694;DHT22;27377;50.666;9.150;2022-07-09T12:49:51;19.40;96.60
41694;DHT22;27377;50.666;9.150;2022-07-09T12:52:35;19.40;96.60
41694;DHT22;27377;50.666;9.150;2022-07-09T12:55:19;19.30;96.60
41694;DHT22;27377;50.666;9.150;2022-07-09T12:58:04;19.40;96.60
41694;DHT22;27377;50.666;9.150;2022-07-09T13:00:48;19.30;96.70
41694;DHT22;27377;50.666;9.150;2022-07-09T13:03:33;19.30;96.70
41694;DHT22;27377;50.666;9.150;2022-07-09T13:06:17;19.40;96.80
41694;DHT22;27377;50.666;9.150;2022-07-09T13:09:17;19.40;96.80
41694;DHT22;27377;50.666;9.150;2022-07-09T13:12:02;19.40;96.80
41694;DHT22;27377;50.666;9.150;2022-07-09T13:14:47;19.40;96.80
41694;DHT22;27377;50.666;9.150;2022-07-09T13:17:31;19.50;96.90
41694;DHT22;27377;50.666;9.150;2022-07-09T13:20:16;19.50;97.00
41694;DHT22;27377;50.666;9.150;2022-07-09T13:23:01;19.60;96.90
41694;DHT22;27377;50.666;9.150;2022-07-09T13:25:45;19.60;96.90
41694;DHT22;27377;50.666;9.150;2022-07-09T13:28:30;19.60;96.80
41694;DHT22;27377;50.666;9.150;2022-07-09T13:31:14;19.60;96.60
41694;DHT22;27377;50.666;9.150;2022-07-09T13:33:59;19.60;96.70
41694;DHT22;27377;50.666;9.150;2022-07-09T13:36:43;19.60;96.70
41694;DHT22;27377;50.666;9.150;2022-07-09T13:39:28;19.70;96.90
41694;DHT22;27377;50.666;9.150;2022-07-09T13:42:13;19.70;97.00
41694;DHT22;27377;50.666;9.150;2022-07-09T13:44:57;19.70;96.40
41694;DHT22;27377;50.666;9.150;2022-07-09T13:47:42;19.70;96.50
41694;DHT22;27377;50.666;9.150;2022-07-09T13:50:26;19.80;96.80
41694;DHT22;27377;50.666;9.150;2022-07-09T13:53:10;19.70;96.80
41694;DHT22;27377;50.666;9.150;2022-07-09T13:55:54;19.80;96.90
41694;DHT22;27377;50.666;9.150;2022-07-09T13:58:39;19.90;96.90
41694;DHT22;27377;50.666;9.150;2022-07-09T14:01:24;19.90;96.10
41694;DHT22;27377;50.666;9.150;2022-07-09T14:04:08;20.00;96.30
41694;DHT22;27377;50.666;9.150;2022-07-09T14:06:53;20.10;96.50
41694;DHT22;27377;50.666;9.150;2022-07-09T14:09:37;20.10;96.50
41694;DHT22;27377;50.666;9.150;2022-07-09T14:12:21;20.10;96.60
41694;DHT22;27377;50.666;9.150;2022-07-09T14:15:07;20.10;96.30
41694;DHT22;27377;50.666;9.150;2022-07-09T14:17:52;20.10;96.10
41694;DHT22;27377;50.666;9.150;2022-07-09T14:20:36;20.10;95.40
41694;DHT22;27377;50.666;9.150;2022-07-09T14:23:20;20.00;94.90
41694;DHT22;27377;50.666;9.150;2022-07-09T14:26:04;20.00;94.00
41694;DHT22;27377;50.666;9.150;2022-07-09T14:28:48;20.00;94.00
41694;DHT22;27377;50.666;9.150;2022-07-09T14:31:32;20.10;94.60
41694;DHT22;27377;50.666;9.150;2022-07-09T14:34:16;20.10;94.90
41694;DHT22;27377;50.666;9.150;2022-07-09T14:37:01;20.00;95.10
41694;DHT22;27377;50.666;9.150;2022-07-09T14:39:45;19.90;95.30
41694;DHT22;27377;50.666;9.150;2022-07-09T14:42:29;19.90;95.40
41694;DHT22;27377;50.666;9.150;2022-07-09T14:45:13;19.90;95.50
41694;DHT22;27377;50.666;9.150;2022-07-09T14:47:57;19.90;95.20
41694;DHT22;27377;50.666;9.150;2022-07-09T14:50:41;19.90;94.90
41694;DHT22;27377;50.666;9.150;2022-07-09T14:53:25;19.80;95.30
41694;DHT22;27377;50.666;9.150;2022-07-09T14:56:09;19.90;95.60
41694;DHT22;27377;50.666;9.150;2022-07-09T14:58:54;19.80;95.60
41694;DHT22;27377;50.666;9.150;2022-07-09T15:01:39;19.80;95.70
41694;DHT22;27377;50.666;9.150;2022-07-09T15:04:23;19.70;95.70
41694;DHT22;27377;50.666;9.150;2022-07-09T15:07:07;19.70;95.80
41694;DHT22;27377;50.666;9.150;2022-07-09T15:09:51;19.70;95.90
41694;DHT22;27377;50.666;9.150;2022-07-09T15:12:37;19.70;95.90
41694;DHT22;27377;50.666;9.150;2022-07-09T15:15:21;19.70;96.00
41694;DHT22;27377;50.666;9.150;2022-07-09T15:18:05;19.60;96.00
41694;DHT22;27377;50.666;9.150;2022-07-09T15:20:50;19.60;96.10
41694;DHT22;27377;50.666;9.150;2022-07-09T15:23:34;19.60;96.20
41694;DHT22;27377;50.666;9.150;2022-07-09T15:26:18;19.60;96.20
41694;DHT22;27377;50.666;9.150;2022-07-09T15:29:02;19.60;96.60
41694;DHT22;27377;50.666;9.150;2022-07-09T15:31:47;19.50;96.80
41694;DHT22;27377;50.666;9.150;2022-07-09T15:34:31;19.50;97.30
41694;DHT22;27377;50.666;9.150;2022-07-09T15:37:15;19.40;97.70
41694;DHT22;27377;50.666;9.150;2022-07-09T15:39:59;19.40;97.80
41694;DHT22;27377;50.666;9.150;2022-07-09T15:42:43;19.30;97.90
41694;DHT22;27377;50.666;9.150;2022-07-09T15:45:27;19.20;98.20
41694;DHT22;27377;50.666;9.150;2022-07-09T15:48:11;19.20;98.50
41694;DHT22;27377;50.666;9.150;2022-07-09T15:50:55;19.20;98.70
41694;DHT22;27377;50.666;9.150;2022-07-09T15:53:39;19.10;98.80
41694;DHT22;27377;50.666;9.150;2022-07-09T15:56:23;19.10;99.00
41694;DHT22;27377;50.666;9.150;2022-07-09T15:59:07;19.10;99.10
41694;DHT22;27377;50.666;9.150;2022-07-09T16:01:51;19.00;99.30
41694;DHT22;27377;50.666;9.150;2022-07-09T16:04:36;19.00;99.60
41694;DHT22;27377;50.666;9.150;2022-07-09T16:07:20;19.00;99.70
41694;DHT22;27377;50.666;9.150;2022-07-09T16:10:04;19.00;99.90
41694;DHT22;27377;50.666;9.150;2022-07-09T16:12:48;18.90;99.90
41694;DHT22;27377;50.666;9.150;2022-07-09T16:15:36;18.90;99.90
41694;DHT22;27377;50.666;9.150;2022-07-09T16:18:21;18.90;99.90
41694;DHT22;27377;50.666;9.150;2022-07-09T16:21:05;18.90;99.90
41694;DHT22;27377;50.666;9.150;2022-07-09T16:23:49;18.90;99.90
41694;DHT22;27377;50.666;9.150;2022-07-09T16:26:33;18.90;99.90
41694;DHT22;27377;50.666;9.150;2022-07-09T16:29:17;18.90;99.90
41694;DHT22;27377;50.666;9.150;2022-07-09T16:32:01;18.80;99.90
41694;DHT22;27377;50.666;9.150;2022-07-09T16:34:45;18.90;99.90
41694;DHT22;27377;50.666;9.150;2022-07-09T16:37:29;18.80;99.90
41694;DHT22;27377;50.666;9.150;2022-07-09T16:40:16;18.80;99.90
41694;DHT22;27377;50.666;9.150;2022-07-09T16:43:00;18.80;99.90
41694;DHT22;27377;50.666;9.150;2022-07-09T16:45:44;18.80;99.90
41694;DHT22;27377;50.666;9.150;2022-07-09T16:48:28;18.80;99.90
41694;DHT22;27377;50.666;9.150;2022-07-09T16:51:14;18.80;99.90
41694;DHT22;27377;50.666;9.150;2022-07-09T16:53:58;18.80;99.90
41694;DHT22;27377;50.666;9.150;2022-07-09T16:56:42;18.80;99.90
41694;DHT22;27377;50.666;9.150;2022-07-09T16:59:27;18.80;99.90
41694;DHT22;27377;50.666;9.150;2022-07-09T17:02:11;18.80;99.90
41694;DHT22;27377;50.666;9.150;2022-07-09T17:04:55;18.80;99.90
41694;DHT22;27377;50.666;9.150;2022-07-09T17:07:39;18.80;99.90
41694;DHT22;27377;50.666;9.150;2022-07-09T17:10:23;18.80;99.90
41694;DHT22;27377;50.666;9.150;2022-07-09T17:13:07;18.80;99.90
41694;DHT22;27377;50.666;9.150;2022-07-09T17:15:53;18.80;99.90
41694;DHT22;27377;50.666;9.150;2022-07-09T17:18:37;18.80;99.90
41694;DHT22;27377;50.666;9.150;2022-07-09T17:21:22;18.80;99.90
41694;DHT22;27377;50.666;9.150;2022-07-09T17:24:06;18.80;99.90